Time;durP1;ratioP1;P1;durP2;ratioP2;P2;SDS_P1;SDS_P2;PMS_P1;PMS_P2;Temp;Humidity;BMP_temperature;BMP_pressure;BME280_temperature;BME280_humidity;BME280_pressure;Samples;Min_cycle;Max_cycle;Signal;HPM_P1;HPM_P2
2023/10/12 00:01:57;;;;;;;5.50;1.25;;;;;;;;;;5052453;28;20037;-62
2023/10/12 00:04:23;;;;;;;6.82;1.27;;;;;;;;;;5052132;28;20063;-62
2023/10/12 00:06:51;;;;;;;4.15;1.30;;;;;;;;;;5052283;28;20128;-62
2023/10/12 00:09:19;;;;;;;7.22;1.60;;;;;;;;;;5052491;28;20522;-62
2023/10/12 00:11:57;;;;;;;8.60;1.50;;;;;;;;;;5051964;28;20533;-62
2023/10/12 00:14:29;;;;;;;9.57;1.67;;;;;;;;;;5051884;28;20062;-62
2023/10/12 00:16:56;;;;;;;8.27;1.48;;;;;;;;;;5051798;28;20048;-62
2023/10/12 00:19:23;;;;;;;10.50;1.55;;;;;;;;;;5051496;28;20049;-62
2023/10/12 00:21:49;;;;;;;9.18;1.83;;;;;;;;;;5052148;28;20037;-62
2023/10/12 00:24:18;;;;;;;11.45;1.65;;;;;;;;;;5052184;28;20033;-62
2023/10/12 00:26:44;;;;;;;9.60;1.73;;;;;;;;;;5033642;28;20033;-62
2023/10/12 00:29:10;;;;;;;8.35;1.60;;;;;;;;;;5052167;28;20047;-62
2023/10/12 00:31:42;;;;;;;7.70;1.63;;;;;;;;;;5052218;28;20044;-62
2023/10/12 00:34:12;;;;;;;8.88;1.60;;;;;;;;;;5051639;28;20044;-62
2023/10/12 00:36:41;;;;;;;7.32;1.50;;;;;;;;;;5051653;28;20037;-62
2023/10/12 00:39:11;;;;;;;7.20;1.58;;;;;;;;;;5051663;28;20056;-62
2023/10/12 00:41:37;;;;;;;6.45;1.45;;;;;;;;;;5051179;28;20122;-62
2023/10/12 00:49:19;;;;;;;3.97;1.23;;;;;;;;;;5051322;28;20142;-62
2023/10/12 00:51:50;;;;;;;8.68;2.08;;;;;;;;;;5051650;28;20049;-62
2023/10/12 00:57:02;;;;;;;7.88;1.85;;;;;;;;;;5051323;28;20056;-62
2023/10/12 00:59:31;;;;;;;8.25;1.83;;;;;;;;;;5051492;28;20398;-62
2023/10/12 01:01:57;;;;;;;7.60;1.95;;;;;;;;;;5051037;28;20110;-62
2023/10/12 01:04:23;;;;;;;12.73;1.90;;;;;;;;;;5051454;28;20067;-62
2023/10/12 01:06:49;;;;;;;7.22;2.03;;;;;;;;;;5051179;28;20467;-62
2023/10/12 01:09:18;;;;;;;15.75;2.53;;;;;;;;;;5051143;28;20040;-62
2023/10/12 01:11:57;;;;;;;10.30;1.95;;;;;;;;;;5051173;28;20116;-62
2023/10/12 01:14:26;;;;;;;11.68;2.10;;;;;;;;;;5051267;28;20040;-62
2023/10/12 01:16:58;;;;;;;8.90;1.60;;;;;;;;;;5050412;28;20052;-62
2023/10/12 01:19:44;;;;;;;11.18;2.03;;;;;;;;;;5033203;28;20041;-62
2023/10/12 01:22:14;;;;;;;8.68;1.77;;;;;;;;;;5033237;28;20045;-62
2023/10/12 01:24:59;;;;;;;9.48;2.35;;;;;;;;;;5050858;28;20119;-62
2023/10/12 01:27:26;;;;;;;7.95;1.65;;;;;;;;;;5030873;28;20050;-62
2023/10/12 01:29:52;;;;;;;10.45;1.98;;;;;;;;;;5030906;28;20134;-61
2023/10/12 01:34:52;;;;;;;5.93;1.95;;;;;;;;;;5031098;28;20465;-62
2023/10/12 01:37:22;;;;;;;6.35;1.88;;;;;;;;;;5030359;28;20045;-61
2023/10/12 01:40:08;;;;;;;11.68;2.10;;;;;;;;;;5030316;28;20037;-61
2023/10/12 01:42:42;;;;;;;10.02;2.17;;;;;;;;;;5030851;28;20045;-61
2023/10/12 01:45:17;;;;;;;8.00;1.98;;;;;;;;;;5012847;28;20053;-61
2023/10/12 01:47:44;;;;;;;10.95;2.60;;;;;;;;;;5030330;28;20453;-61
2023/10/12 01:50:11;;;;;;;10.27;3.05;;;;;;;;;;5030688;28;20574;-61
2023/10/12 01:52:37;;;;;;;11.07;2.78;;;;;;;;;;5030336;28;20517;-61
2023/10/12 01:55:15;;;;;;;9.02;2.40;;;;;;;;;;5030002;28;20059;-61
2023/10/12 01:57:47;;;;;;;10.38;2.17;;;;;;;;;;5030259;28;20056;-61
2023/10/12 02:00:15;;;;;;;10.13;2.63;;;;;;;;;;5030171;28;20045;-61
2023/10/12 02:02:50;;;;;;;10.63;2.40;;;;;;;;;;5029707;28;20041;-61
2023/10/12 02:05:26;;;;;;;9.05;2.53;;;;;;;;;;5030225;28;20396;-61
2023/10/12 02:07:53;;;;;;;10.30;2.58;;;;;;;;;;5030212;28;20479;-62
2023/10/12 02:10:19;;;;;;;9.95;2.30;;;;;;;;;;5029857;28;20037;-62
2023/10/12 02:12:46;;;;;;;6.82;2.00;;;;;;;;;;5030364;28;20045;-62
2023/10/12 02:15:15;;;;;;;8.45;2.22;;;;;;;;;;5029859;28;20049;-62
2023/10/12 02:17:49;;;;;;;10.68;2.63;;;;;;;;;;5039884;28;20087;-62
2023/10/12 02:20:15;;;;;;;10.48;2.15;;;;;;;;;;5049922;28;20049;-62
2023/10/12 02:22:41;;;;;;;8.80;2.38;;;;;;;;;;5049902;28;20392;-62
2023/10/12 02:27:54;;;;;;;7.97;2.10;;;;;;;;;;5049934;28;20399;-61
2023/10/12 02:30:21;;;;;;;8.00;2.53;;;;;;;;;;5032011;28;20048;-61
2023/10/12 02:32:52;;;;;;;11.23;2.75;;;;;;;;;;5049693;28;20041;-61
2023/10/12 02:35:22;;;;;;;10.10;2.60;;;;;;;;;;5049684;28;20449;-61
2023/10/12 02:37:50;;;;;;;10.38;2.53;;;;;;;;;;5031579;28;20076;-61
2023/10/12 02:40:16;;;;;;;11.45;2.47;;;;;;;;;;5049287;28;20095;-61
2023/10/12 02:42:43;;;;;;;6.90;2.25;;;;;;;;;;5049367;28;20124;-61
2023/10/12 02:47:40;;;;;;;11.43;2.65;;;;;;;;;;5049325;28;20067;-61
2023/10/12 02:52:34;;;;;;;8.68;2.60;;;;;;;;;;5049314;28;20119;-61
2023/10/12 02:55:18;;;;;;;12.45;3.00;;;;;;;;;;5049087;28;20736;-61
2023/10/12 02:57:53;;;;;;;8.95;2.70;;;;;;;;;;5049409;28;20068;-61
2023/10/12 03:00:21;;;;;;;12.02;3.00;;;;;;;;;;5049162;28;20116;-61
2023/10/12 03:02:51;;;;;;;14.90;3.22;;;;;;;;;;5049474;28;20120;-61
2023/10/12 03:05:32;;;;;;;8.90;2.47;;;;;;;;;;5049423;28;20072;-61
2023/10/12 03:08:06;;;;;;;10.27;2.25;;;;;;;;;;5048916;28;20048;-61
2023/10/12 03:10:32;;;;;;;10.70;2.45;;;;;;;;;;5049298;28;20049;-61
2023/10/12 03:13:04;;;;;;;8.30;2.33;;;;;;;;;;5049367;28;20109;-61
2023/10/12 03:15:48;;;;;;;10.52;3.00;;;;;;;;;;5031054;28;20098;-61
2023/10/12 03:18:14;;;;;;;13.82;2.67;;;;;;;;;;5049151;28;20124;-61
2023/10/12 03:20:52;;;;;;;12.35;2.75;;;;;;;;;;5049461;28;20439;-61
2023/10/12 03:23:19;;;;;;;11.05;2.58;;;;;;;;;;5048938;28;20426;-61
2023/10/12 03:25:46;;;;;;;10.30;2.80;;;;;;;;;;5049233;28;20081;-61
2023/10/12 03:28:29;;;;;;;13.95;2.45;;;;;;;;;;5049223;28;20060;-61
2023/10/12 03:30:57;;;;;;;8.68;2.40;;;;;;;;;;5030724;28;20500;-61
2023/10/12 03:33:29;;;;;;;16.55;2.45;;;;;;;;;;5048882;28;20052;-61
2023/10/12 03:36:02;;;;;;;8.88;2.55;;;;;;;;;;5049202;28;20056;-61
2023/10/12 03:38:33;;;;;;;11.13;2.58;;;;;;;;;;5048498;28;20041;-61
2023/10/12 03:43:48;;;;;;;8.88;2.45;;;;;;;;;;5048973;28;20054;-61
2023/10/12 03:46:26;;;;;;;9.35;2.22;;;;;;;;;;5048626;28;20044;-61
2023/10/12 03:51:43;;;;;;;8.73;2.67;;;;;;;;;;5049306;28;20048;-61
2023/10/12 03:54:26;;;;;;;;;;;;;;;;;;5048827;28;20136;-61
2023/10/12 03:56:53;;;;;;;11.00;2.50;;;;;;;;;;5052300;28;20003;-61
2023/10/12 03:59:31;;;;;;;7.80;2.40;;;;;;;;;;5052488;28;20047;-61
2023/10/12 04:02:00;;;;;;;10.63;2.38;;;;;;;;;;5052564;28;20037;-61
2023/10/12 04:05:15;;;;;;;9.13;2.38;;;;;;;;;;5052466;28;20442;-61
2023/10/12 04:07:19;;;;;;;8.48;2.45;;;;;;;;;;5043341;28;20504;-61
2023/10/12 04:09:52;;;;;;;7.70;2.17;;;;;;;;;;5052310;28;20098;-61
2023/10/12 04:12:19;;;;;;;10.82;2.47;;;;;;;;;;5052311;28;20071;-61
2023/10/12 04:14:53;;;;;;;8.73;2.30;;;;;;;;;;5051453;28;20067;-61
2023/10/12 04:28:16;;;;;;;9.00;2.45;;;;;;;;;;5051985;28;20183;-62
2023/10/12 04:33:24;;;;;;;11.02;3.08;;;;;;;;;;5052842;28;20087;-62
2023/10/12 04:43:38;;;;;;;15.45;3.55;;;;;;;;;;5052956;28;20053;-61
2023/10/12 04:48:43;;;;;;;7.82;2.47;;;;;;;;;;5052877;28;20060;-61
2023/10/12 04:51:18;;;;;;;15.52;2.80;;;;;;;;;;5034770;28;20516;-61
2023/10/12 04:56:36;;;;;;;10.23;2.97;;;;;;;;;;5052659;28;20045;-62
2023/10/12 04:59:15;;;;;;;9.90;2.50;;;;;;;;;;5052104;28;20109;-62
2023/10/12 05:02:06;;;;;;;10.68;2.33;;;;;;;;;;5052213;28;20581;-62
2023/10/12 05:09:51;;;;;;;9.55;3.05;;;;;;;;;;5052706;28;20080;-62
2023/10/12 05:12:23;;;;;;;9.50;2.95;;;;;;;;;;5052560;28;20049;-62
2023/10/12 05:14:55;;;;;;;11.03;2.83;;;;;;;;;;5051942;28;20041;-61
2023/10/12 05:17:21;;;;;;;10.38;3.15;;;;;;;;;;5052250;28;20116;-62
2023/10/12 05:19:52;;;;;;;12.30;3.15;;;;;;;;;;5052346;28;20464;-62
2023/10/12 05:22:19;;;;;;;9.50;2.40;;;;;;;;;;5052024;28;20040;-62
2023/10/12 05:24:46;;;;;;;13.38;2.83;;;;;;;;;;5052386;28;20406;-62
2023/10/12 05:27:28;;;;;;;11.10;2.40;;;;;;;;;;5052528;28;20041;-62
2023/10/12 05:30:06;;;;;;;17.77;2.90;;;;;;;;;;5051876;28;20087;-62
2023/10/12 05:32:44;;;;;;;11.90;2.55;;;;;;;;;;5052132;28;20680;-62
2023/10/12 05:35:16;;;;;;;9.65;2.63;;;;;;;;;;5052282;28;20112;-62
2023/10/12 05:37:51;;;;;;;9.65;2.75;;;;;;;;;;5051859;28;20045;-62
2023/10/12 05:40:17;;;;;;;11.82;3.03;;;;;;;;;;5052047;28;20041;-62
2023/10/12 05:42:46;;;;;;;13.68;3.22;;;;;;;;;;5033874;28;20037;-62
2023/10/12 05:45:22;;;;;;;17.63;3.13;;;;;;;;;;5051623;28;20037;-62
2023/10/12 05:47:53;;;;;;;12.68;2.80;;;;;;;;;;5051976;28;20162;-62
2023/10/12 05:50:23;;;;;;;12.40;2.85;;;;;;;;;;5051998;28;20041;-62
2023/10/12 05:52:52;;;;;;;15.70;3.63;;;;;;;;;;5051180;28;20113;-62
2023/10/12 05:55:20;;;;;;;9.77;3.00;;;;;;;;;;5051522;28;20080;-62
2023/10/12 05:57:48;;;;;;;14.02;2.97;;;;;;;;;;5052019;28;20045;-62
2023/10/12 06:02:59;;;;;;;11.52;2.88;;;;;;;;;;5050381;28;20045;-62
2023/10/12 06:05:25;;;;;;;8.98;2.47;;;;;;;;;;5050311;28;20495;-62
2023/10/12 06:08:00;;;;;;;11.45;2.60;;;;;;;;;;5050906;28;20053;-62
2023/10/12 06:10:27;;;;;;;9.07;2.63;;;;;;;;;;5050597;28;20048;-61
2023/10/12 06:12:53;;;;;;;9.32;2.55;;;;;;;;;;5049825;28;20057;-61
2023/10/12 06:15:24;;;;;;;9.32;2.40;;;;;;;;;;5051050;28;20380;-61
2023/10/12 06:17:51;;;;;;;12.97;2.33;;;;;;;;;;5050076;28;20045;-61
2023/10/12 06:20:31;;;;;;;7.63;2.13;;;;;;;;;;5050930;28;20047;-61
2023/10/12 06:22:57;;;;;;;6.85;2.35;;;;;;;;;;5050295;28;20511;-64
2023/10/12 06:25:28;;;;;;;11.80;2.70;;;;;;;;;;5050471;28;20032;-63
2023/10/12 06:27:54;;;;;;;9.98;2.80;;;;;;;;;;5050734;28;20068;-62
2023/10/12 06:30:23;;;;;;;13.18;3.03;;;;;;;;;;5050438;28;20521;-62
2023/10/12 06:32:49;;;;;;;8.52;2.60;;;;;;;;;;5050712;28;20053;-64
2023/10/12 06:45:52;;;;;;;11.18;2.97;;;;;;;;;;5049781;28;20052;-64
2023/10/12 06:51:06;;;;;;;7.28;2.78;;;;;;;;;;5049770;28;20162;-63
2023/10/12 06:53:34;;;;;;;12.43;2.92;;;;;;;;;;5042927;28;20057;-63
2023/10/12 06:56:24;;;;;;;9.82;2.88;;;;;;;;;;5049972;28;20041;-64
2023/10/12 07:04:15;;;;;;;14.43;3.53;;;;;;;;;;5049945;28;20171;-64
2023/10/12 07:06:56;;;;;;;10.48;3.22;;;;;;;;;;5049403;28;20048;-64
2023/10/12 07:09:27;;;;;;;14.68;3.80;;;;;;;;;;5050741;28;20083;-64
2023/10/12 07:11:53;;;;;;;15.63;4.60;;;;;;;;;;5036969;28;20071;-64
2023/10/12 07:14:33;;;;;;;12.02;4.70;;;;;;;;;;5049235;28;20059;-64
2023/10/12 07:17:01;;;;;;;12.70;4.57;;;;;;;;;;5027231;28;20049;-64
2023/10/12 07:19:27;;;;;;;12.32;4.47;;;;;;;;;;5039515;28;20094;-64
2023/10/12 07:21:55;;;;;;;13.82;4.65;;;;;;;;;;5050482;28;20037;-65
2023/10/12 07:24:26;;;;;;;12.00;3.65;;;;;;;;;;5035989;28;20505;-65
2023/10/12 07:26:52;;;;;;;11.55;3.83;;;;;;;;;;5049028;28;20045;-65
2023/10/12 07:29:19;;;;;;;14.90;3.67;;;;;;;;;;5043927;28;20037;-65
2023/10/12 07:31:50;;;;;;;9.88;3.50;;;;;;;;;;5042966;28;20434;-65
2023/10/12 07:34:18;;;;;;;12.23;2.72;;;;;;;;;;5050186;28;20043;-66
2023/10/12 07:36:57;;;;;;;14.75;3.35;;;;;;;;;;5032747;28;20040;-65
2023/10/12 07:39:38;;;;;;;9.18;3.17;;;;;;;;;;5053506;28;20045;-67
2023/10/12 07:42:05;;;;;;;12.05;3.08;;;;;;;;;;5051980;28;20517;-65
2023/10/12 07:44:53;;;;;;;12.88;3.28;;;;;;;;;;5052673;28;20071;-66
2023/10/12 07:47:22;;;;;;;15.43;3.70;;;;;;;;;;5048904;28;20045;-66
2023/10/12 07:49:51;;;;;;;10.32;2.58;;;;;;;;;;5048759;28;20045;-66
2023/10/12 07:55:04;;;;;;;9.27;2.80;;;;;;;;;;5050275;28;20049;-66
2023/10/12 07:57:30;;;;;;;9.77;2.53;;;;;;;;;;5050178;28;20048;-65
2023/10/12 08:05:17;;;;;;;16.90;3.45;;;;;;;;;;5051968;28;20041;-65
2023/10/12 08:08:17;;;;;;;14.45;2.65;;;;;;;;;;5052769;28;20106;-65
2023/10/12 08:29:17;;;;;;;13.02;2.30;;;;;;;;;;5051769;28;20052;-65
2023/10/12 08:31:46;;;;;;;16.10;2.13;;;;;;;;;;5051839;28;20052;-65
2023/10/12 08:44:49;;;;;;;10.52;2.42;;;;;;;;;;5049705;28;20437;-64
2023/10/12 08:47:25;;;;;;;13.45;2.90;;;;;;;;;;5049389;28;20044;-64
2023/10/12 08:50:01;;;;;;;14.75;2.75;;;;;;;;;;5035671;28;20172;-65
2023/10/12 08:52:34;;;;;;;10.15;2.10;;;;;;;;;;5051439;28;20061;-65
2023/10/12 08:55:13;;;;;;;10.77;2.13;;;;;;;;;;5050124;28;20048;-65
2023/10/12 08:57:43;;;;;;;10.13;1.63;;;;;;;;;;5036825;28;20049;-65
2023/10/12 09:05:42;;;;;;;8.30;1.60;;;;;;;;;;5042084;28;20048;-64
2023/10/12 09:10:58;;;;;;;9.35;1.60;;;;;;;;;;5050265;28;20053;-63
2023/10/12 09:13:24;;;;;;;10.52;1.75;;;;;;;;;;5047671;28;20049;-65
2023/10/12 09:15:57;;;;;;;6.28;1.85;;;;;;;;;;5049013;28;20049;-65
2023/10/12 09:18:30;;;;;;;10.00;1.70;;;;;;;;;;5045813;28;20483;-66
2023/10/12 09:23:42;;;;;;;12.80;2.17;;;;;;;;;;5050401;28;20045;-66
2023/10/12 09:29:07;;;;;;;9.60;1.67;;;;;;;;;;5050247;28;20060;-65
2023/10/12 09:34:31;;;;;;;;;;;;;;;;;;5044828;28;20044;-63
2023/10/12 09:36:55;;;;;;;11.18;1.80;;;;;;;;;;5048344;28;19917;-64
2023/10/12 09:39:27;;;;;;;6.05;1.45;;;;;;;;;;5051199;28;20045;-62
2023/10/12 09:41:59;;;;;;;5.80;1.30;;;;;;;;;;5050845;28;20072;-63
2023/10/12 09:44:26;;;;;;;8.85;1.50;;;;;;;;;;5045959;28;20029;-64
2023/10/12 09:46:55;;;;;;;9.57;1.52;;;;;;;;;;5050873;28;20730;-63
2023/10/12 09:49:27;;;;;;;13.38;2.15;;;;;;;;;;5050559;28;20119;-64
2023/10/12 09:52:00;;;;;;;8.15;1.70;;;;;;;;;;5046480;28;20102;-64
2023/10/12 09:54:45;;;;;;;10.88;1.65;;;;;;;;;;5050744;28;20048;-65
2023/10/12 09:57:27;;;;;;;9.23;1.48;;;;;;;;;;5050700;28;20364;-65
2023/10/12 09:59:59;;;;;;;9.85;2.08;;;;;;;;;;5050986;28;20480;-66
2023/10/12 10:02:28;;;;;;;12.55;2.30;;;;;;;;;;5049989;28;20088;-65
2023/10/12 10:05:27;;;;;;;7.13;2.60;;;;;;;;;;5050110;28;20048;-64
2023/10/12 10:08:17;;;;;;;8.25;1.10;;;;;;;;;;5050009;28;20052;-65
2023/10/12 10:10:45;;;;;;;9.68;1.70;;;;;;;;;;5050354;28;20032;-66
2023/10/12 10:13:31;;;;;;;10.30;1.67;;;;;;;;;;5050846;28;20049;-65
2023/10/12 10:15:59;;;;;;;10.43;1.42;;;;;;;;;;5047631;28;20519;-64
2023/10/12 10:18:28;;;;;;;10.88;1.90;;;;;;;;;;5059116;28;20033;-64
2023/10/12 10:21:04;;;;;;;7.88;1.50;;;;;;;;;;5049205;28;20037;-65
2023/10/12 10:23:37;;;;;;;10.18;1.83;;;;;;;;;;5020363;28;20152;-62
2023/10/12 10:26:16;;;;;;;;;;;;;;;;;;5040029;28;20045;-66
2023/10/12 10:28:55;;;;;;;8.40;1.65;;;;;;;;;;5050996;28;19916;-66
2023/10/12 10:31:41;;;;;;;11.68;1.67;;;;;;;;;;5050674;28;20079;-66
2023/10/12 10:34:11;;;;;;;13.48;1.90;;;;;;;;;;5050814;28;20657;-66
2023/10/12 10:36:38;;;;;;;8.85;1.65;;;;;;;;;;5050160;28;20056;-66
2023/10/12 10:39:28;;;;;;;8.88;1.52;;;;;;;;;;5050271;28;20468;-66
2023/10/12 10:44:22;;;;;;;4.70;1.45;;;;;;;;;;5048014;28;20082;-65
2023/10/12 10:47:00;;;;;;;9.43;1.77;;;;;;;;;;5049798;28;20044;-65
2023/10/12 10:49:33;;;;;;;7.05;1.65;;;;;;;;;;5050470;28;20055;-65
2023/10/12 10:52:13;;;;;;;13.85;2.10;;;;;;;;;;5050350;28;20398;-66
2023/10/12 10:54:41;;;;;;;9.75;1.17;;;;;;;;;;5050093;28;20565;-64
2023/10/12 10:57:24;;;;;;;9.77;1.67;;;;;;;;;;5049818;28;20484;-65
2023/10/12 10:59:51;;;;;;;11.07;1.40;;;;;;;;;;5050410;28;20468;-65
2023/10/12 11:02:20;;;;;;;7.72;1.60;;;;;;;;;;5050307;28;20041;-66
2023/10/12 11:04:46;;;;;;;8.13;1.33;;;;;;;;;;5050736;28;20048;-65
2023/10/12 11:07:14;;;;;;;8.32;1.65;;;;;;;;;;5054095;28;20071;-65
2023/10/12 11:12:23;;;;;;;9.65;1.80;;;;;;;;;;5054660;28;20052;-65
2023/10/12 11:17:40;;;;;;;9.95;1.70;;;;;;;;;;5053969;28;20130;-65
2023/10/12 11:20:08;;;;;;;6.20;2.08;;;;;;;;;;5042198;28;20716;-64
2023/10/12 11:22:42;;;;;;;12.05;2.03;;;;;;;;;;5045227;28;20048;-64
2023/10/12 11:25:12;;;;;;;9.30;1.50;;;;;;;;;;5052355;28;20119;-65
2023/10/12 11:27:39;;;;;;;11.00;1.80;;;;;;;;;;5053841;28;20076;-64
2023/10/12 11:30:08;;;;;;;7.40;1.50;;;;;;;;;;5054235;28;20049;-65
2023/10/12 11:32:53;;;;;;;9.90;1.63;;;;;;;;;;5053240;28;20048;-63
2023/10/12 11:35:32;;;;;;;9.07;1.38;;;;;;;;;;5053732;28;20068;-65
2023/10/12 11:37:58;;;;;;;12.57;1.55;;;;;;;;;;5053849;28;20475;-65
2023/10/12 11:40:28;;;;;;;11.02;2.13;;;;;;;;;;5051878;28;20049;-64
2023/10/12 11:42:54;;;;;;;10.25;1.60;;;;;;;;;;5053816;28;20067;-64
2023/10/12 11:45:20;;;;;;;13.52;1.90;;;;;;;;;;5053657;28;20037;-65
2023/10/12 11:47:46;;;;;;;10.48;1.98;;;;;;;;;;5053414;28;20132;-65
2023/10/12 11:50:13;;;;;;;8.45;1.77;;;;;;;;;;5053713;28;20033;-65
2023/10/12 11:52:40;;;;;;;9.82;1.70;;;;;;;;;;5042897;28;20523;-64
2023/10/12 11:55:07;;;;;;;5.95;1.50;;;;;;;;;;5038457;28;20152;-65
2023/10/12 11:57:35;;;;;;;6.30;1.55;;;;;;;;;;5053677;28;20083;-64
2023/10/12 12:00:21;;;;;;;10.60;1.80;;;;;;;;;;5052617;28;20049;-64
2023/10/12 12:02:57;;;;;;;8.65;1.52;;;;;;;;;;5019420;28;20044;-63
2023/10/12 12:05:33;;;;;;;8.32;1.70;;;;;;;;;;5053074;28;20095;-64
2023/10/12 12:08:14;;;;;;;8.85;2.00;;;;;;;;;;5053659;28;20513;-65
2023/10/12 12:10:54;;;;;;;11.68;1.65;;;;;;;;;;5072038;28;20040;-65
2023/10/12 12:13:20;;;;;;;7.82;1.70;;;;;;;;;;5053380;28;20041;-64
2023/10/12 12:15:47;;;;;;;9.27;1.88;;;;;;;;;;5052225;28;20044;-64
2023/10/12 12:18:21;;;;;;;8.57;1.92;;;;;;;;;;5053212;28;20037;-64
2023/10/12 12:20:48;;;;;;;10.20;1.88;;;;;;;;;;5052634;28;20044;-65
2023/10/12 12:23:17;;;;;;;11.18;2.17;;;;;;;;;;5030329;28;20116;-65
2023/10/12 12:25:44;;;;;;;10.10;1.50;;;;;;;;;;5053065;28;20040;-65
2023/10/12 12:28:21;;;;;;;8.57;1.58;;;;;;;;;;5034353;28;20135;-64
2023/10/12 12:30:55;;;;;;;9.05;1.35;;;;;;;;;;5051647;28;20151;-64
2023/10/12 12:33:22;;;;;;;10.23;1.50;;;;;;;;;;5051143;28;20049;-64
2023/10/12 12:35:54;;;;;;;8.57;1.58;;;;;;;;;;5049874;28;20045;-64
2023/10/12 12:40:59;;;;;;;13.30;2.10;;;;;;;;;;5052382;28;20052;-64
2023/10/12 12:43:26;;;;;;;6.97;1.50;;;;;;;;;;5052584;28;20048;-63
2023/10/12 12:45:52;;;;;;;7.60;1.98;;;;;;;;;;5053208;28;20060;-65
2023/10/12 12:48:21;;;;;;;8.60;1.90;;;;;;;;;;5052406;28;20456;-63
2023/10/12 12:50:48;;;;;;;9.98;1.90;;;;;;;;;;5052591;28;20467;-63
2023/10/12 12:53:18;;;;;;;11.68;2.10;;;;;;;;;;5048255;28;20084;-64
2023/10/12 12:55:46;;;;;;;9.52;1.60;;;;;;;;;;5052201;28;20087;-65
2023/10/12 12:58:15;;;;;;;17.67;2.20;;;;;;;;;;5053808;28;20041;-65
2023/10/12 13:00:42;;;;;;;10.48;1.75;;;;;;;;;;5047890;28;20036;-64
2023/10/12 13:03:09;;;;;;;8.27;2.10;;;;;;;;;;5034074;28;20053;-64
2023/10/12 13:05:36;;;;;;;9.93;1.98;;;;;;;;;;5051954;28;20071;-62
2023/10/12 13:08:02;;;;;;;8.00;2.10;;;;;;;;;;5050701;28;20052;-64
2023/10/12 13:10:29;;;;;;;7.57;1.85;;;;;;;;;;5050813;28;20041;-63
2023/10/12 13:12:55;;;;;;;7.28;1.58;;;;;;;;;;5047900;28;20073;-65
2023/10/12 13:15:23;;;;;;;9.45;1.88;;;;;;;;;;5050613;28;20033;-64
2023/10/12 13:17:49;;;;;;;10.27;1.70;;;;;;;;;;5052161;28;20090;-64
2023/10/12 13:20:21;;;;;;;13.90;2.08;;;;;;;;;;5051909;28;20482;-64
2023/10/12 13:22:48;;;;;;;10.10;1.95;;;;;;;;;;5050711;28;20045;-65
2023/10/12 13:25:20;;;;;;;11.77;1.77;;;;;;;;;;5051463;28;21354;-63
2023/10/12 13:27:49;;;;;;;9.73;1.65;;;;;;;;;;5050913;28;20060;-63
2023/10/12 13:30:15;;;;;;;13.70;1.67;;;;;;;;;;5050824;28;20047;-64
2023/10/12 13:32:48;;;;;;;7.60;1.80;;;;;;;;;;5036862;28;20042;-65
2023/10/12 13:35:41;;;;;;;9.05;1.50;;;;;;;;;;5045099;28;20064;-65
2023/10/12 13:38:11;;;;;;;7.53;1.40;;;;;;;;;;5051320;28;20037;-65
2023/10/12 13:40:38;;;;;;;7.55;1.70;;;;;;;;;;5051781;28;20087;-64
2023/10/12 13:43:14;;;;;;;6.30;1.63;;;;;;;;;;5050660;28;20041;-64
2023/10/12 13:45:42;;;;;;;7.70;2.08;;;;;;;;;;5050050;28;20045;-63
2023/10/12 13:48:10;;;;;;;12.15;1.75;;;;;;;;;;5051403;28;20053;-66
2023/10/12 13:50:37;;;;;;;10.38;1.80;;;;;;;;;;5031904;28;20045;-66
2023/10/12 13:53:05;;;;;;;9.60;2.10;;;;;;;;;;5048319;28;20137;-66
2023/10/12 13:55:32;;;;;;;7.65;2.55;;;;;;;;;;5050991;28;20033;-64
2023/10/12 13:58:00;;;;;;;13.50;2.10;;;;;;;;;;5051468;28;20060;-65
2023/10/12 14:00:26;;;;;;;12.15;2.30;;;;;;;;;;5050857;28;20076;-65
2023/10/12 14:02:59;;;;;;;9.75;2.10;;;;;;;;;;5051582;28;20090;-65
2023/10/12 14:05:25;;;;;;;12.15;2.60;;;;;;;;;;5050571;28;20037;-64
2023/10/12 14:07:55;;;;;;;10.18;2.25;;;;;;;;;;5050870;28;20049;-64
2023/10/12 14:10:22;;;;;;;11.70;2.13;;;;;;;;;;5033660;28;20625;-64
2023/10/12 14:12:48;;;;;;;12.65;2.22;;;;;;;;;;5033190;28;20085;-65
2023/10/12 14:15:14;;;;;;;11.05;2.13;;;;;;;;;;5049433;28;20044;-64
2023/10/12 14:17:40;;;;;;;10.40;2.35;;;;;;;;;;5043569;28;20083;-64
2023/10/12 14:20:08;;;;;;;13.05;2.58;;;;;;;;;;5039866;28;20086;-65
2023/10/12 14:22:36;;;;;;;12.65;2.95;;;;;;;;;;5050156;28;20049;-66
2023/10/12 14:25:06;;;;;;;12.95;2.85;;;;;;;;;;5050497;28;20167;-65
2023/10/12 14:27:33;;;;;;;8.05;3.20;;;;;;;;;;5050889;28;20502;-64
2023/10/12 14:30:13;;;;;;;8.05;2.85;;;;;;;;;;5047177;28;20045;-64
2023/10/12 14:32:40;;;;;;;10.93;2.90;;;;;;;;;;5040595;28;20167;-64
2023/10/12 14:35:07;;;;;;;14.18;2.70;;;;;;;;;;5036601;28;20045;-64
2023/10/12 14:37:36;;;;;;;14.45;2.47;;;;;;;;;;5050681;28;20353;-64
2023/10/12 14:40:10;;;;;;;9.25;2.70;;;;;;;;;;5050761;28;20076;-64
2023/10/12 14:42:40;;;;;;;11.98;2.67;;;;;;;;;;5051321;28;20045;-64
2023/10/12 14:45:09;;;;;;;12.57;2.90;;;;;;;;;;5050752;28;20476;-64
2023/10/12 14:47:36;;;;;;;13.88;2.88;;;;;;;;;;5051121;28;20120;-64
2023/10/12 14:50:09;;;;;;;12.20;2.35;;;;;;;;;;5047726;28;20041;-64
2023/10/12 14:52:38;;;;;;;10.57;2.80;;;;;;;;;;5050513;28;20064;-64
2023/10/12 14:55:10;;;;;;;12.68;2.60;;;;;;;;;;5051004;28;20055;-64
2023/10/12 14:57:40;;;;;;;9.32;2.53;;;;;;;;;;5050686;28;20056;-64
2023/10/12 15:00:30;;;;;;;8.10;2.20;;;;;;;;;;5050443;28;20041;-64
2023/10/12 15:02:57;;;;;;;8.82;2.47;;;;;;;;;;5050022;28;20084;-64
2023/10/12 15:05:27;;;;;;;14.55;3.40;;;;;;;;;;5050831;28;20052;-64
2023/10/12 15:07:55;;;;;;;9.75;2.45;;;;;;;;;;5039003;28;20523;-64
2023/10/12 15:10:21;;;;;;;8.32;2.47;;;;;;;;;;5050920;28;20056;-64
2023/10/12 15:12:50;;;;;;;10.00;2.70;;;;;;;;;;5050529;28;20041;-64
2023/10/12 15:15:20;;;;;;;9.07;2.60;;;;;;;;;;5050501;28;20098;-64
2023/10/12 15:17:47;;;;;;;10.80;2.60;;;;;;;;;;5050284;28;20056;-64
2023/10/12 15:20:15;;;;;;;10.00;2.85;;;;;;;;;;5050737;28;20037;-64
2023/10/12 15:22:45;;;;;;;10.70;2.78;;;;;;;;;;5050265;28;20056;-64
2023/10/12 15:25:12;;;;;;;12.20;2.70;;;;;;;;;;5032337;28;20037;-64
2023/10/12 15:27:39;;;;;;;10.20;2.58;;;;;;;;;;5050693;28;20049;-64
2023/10/12 15:30:07;;;;;;;11.10;3.00;;;;;;;;;;5050554;28;20660;-64
2023/10/12 15:32:33;;;;;;;9.10;2.50;;;;;;;;;;5032952;28;20395;-64
2023/10/12 15:34:59;;;;;;;9.68;2.65;;;;;;;;;;5032711;28;20080;-64
2023/10/12 15:37:25;;;;;;;11.35;2.70;;;;;;;;;;5050263;28;20056;-64
2023/10/12 15:39:52;;;;;;;7.75;2.35;;;;;;;;;;5050690;28;20083;-64
2023/10/12 15:42:18;;;;;;;9.98;2.50;;;;;;;;;;5050396;28;20044;-64
2023/10/12 15:44:44;;;;;;;10.30;3.17;;;;;;;;;;5050114;28;20041;-64
2023/10/12 15:47:10;;;;;;;11.48;2.45;;;;;;;;;;5050432;28;20045;-64
2023/10/12 15:49:36;;;;;;;7.95;3.08;;;;;;;;;;5050740;28;20479;-64
2023/10/12 15:52:02;;;;;;;9.50;2.88;;;;;;;;;;5052722;28;20037;-64
2023/10/12 15:54:31;;;;;;;10.75;2.78;;;;;;;;;;5053914;28;20071;-64
2023/10/12 15:56:58;;;;;;;6.55;2.67;;;;;;;;;;5054183;28;20163;-64
2023/10/12 15:59:26;;;;;;;10.02;2.75;;;;;;;;;;5053787;28;20052;-64
2023/10/12 16:01:52;;;;;;;7.93;2.42;;;;;;;;;;5054280;28;20067;-64
2023/10/12 16:04:19;;;;;;;9.27;3.17;;;;;;;;;;5054206;28;20041;-64
2023/10/12 16:06:46;;;;;;;9.38;2.65;;;;;;;;;;5053510;28;20051;-64
2023/10/12 16:09:20;;;;;;;7.45;2.72;;;;;;;;;;5036024;28;20060;-64
2023/10/12 16:11:46;;;;;;;10.00;2.58;;;;;;;;;;5054151;28;20056;-64
2023/10/12 16:14:16;;;;;;;8.75;2.97;;;;;;;;;;5053302;28;20045;-64
2023/10/12 16:16:43;;;;;;;7.10;3.25;;;;;;;;;;5053673;28;20045;-64
2023/10/12 16:19:09;;;;;;;8.75;2.75;;;;;;;;;;5053732;28;20052;-64
2023/10/12 16:21:36;;;;;;;6.32;2.80;;;;;;;;;;5053520;28;20128;-64
2023/10/12 16:24:04;;;;;;;8.20;3.13;;;;;;;;;;5053860;28;20033;-64
2023/10/12 16:26:31;;;;;;;9.05;2.97;;;;;;;;;;5053478;28;20543;-64
2023/10/12 16:29:00;;;;;;;7.95;3.22;;;;;;;;;;5053379;28;20049;-64
2023/10/12 16:31:34;;;;;;;7.30;3.90;;;;;;;;;;5035490;28;20240;-64
2023/10/12 16:34:01;;;;;;;10.27;3.50;;;;;;;;;;5053583;28;20076;-64
2023/10/12 16:36:27;;;;;;;9.50;3.85;;;;;;;;;;5053108;28;20102;-64
2023/10/12 16:38:53;;;;;;;8.15;3.33;;;;;;;;;;5035339;28;20045;-64
2023/10/12 16:41:19;;;;;;;6.50;3.35;;;;;;;;;;5053391;28;20086;-64
2023/10/12 16:43:47;;;;;;;7.75;3.28;;;;;;;;;;5053077;28;20037;-64
2023/10/12 16:46:17;;;;;;;10.32;3.25;;;;;;;;;;5053051;28;20041;-64
2023/10/12 16:48:43;;;;;;;6.65;2.85;;;;;;;;;;5053262;28;20037;-64
2023/10/12 16:51:10;;;;;;;6.15;3.25;;;;;;;;;;5052802;28;20129;-64
2023/10/12 16:53:37;;;;;;;7.05;2.78;;;;;;;;;;5052920;28;20076;-64
2023/10/12 16:56:13;;;;;;;7.53;3.17;;;;;;;;;;5053056;28;20049;-64
2023/10/12 16:58:42;;;;;;;6.40;2.70;;;;;;;;;;5052213;28;20078;-64
2023/10/12 17:01:10;;;;;;;5.78;3.00;;;;;;;;;;5052920;28;20087;-64
2023/10/12 17:03:37;;;;;;;6.00;2.78;;;;;;;;;;5035104;28;20057;-64
2023/10/12 17:06:05;;;;;;;6.30;2.97;;;;;;;;;;5052562;28;20036;-64
2023/10/12 17:08:32;;;;;;;8.57;3.15;;;;;;;;;;5052895;28;20094;-64
2023/10/12 17:11:00;;;;;;;8.13;3.05;;;;;;;;;;5052888;28;20430;-64
2023/10/12 17:13:26;;;;;;;6.05;2.85;;;;;;;;;;5052394;28;20052;-64
2023/10/12 17:15:52;;;;;;;7.07;3.33;;;;;;;;;;5052734;28;20456;-64
2023/10/12 17:18:19;;;;;;;6.78;3.33;;;;;;;;;;5052579;28;20037;-64
2023/10/12 17:20:46;;;;;;;7.10;3.17;;;;;;;;;;5051889;28;20052;-64